Wetterdaten: Woche 24.07.17 - 30.07.17 (KW30)
Datum Zeit Temp. Aussen Temp. o. S. +5cm Feuchte Auss BlattFeu 1 Luftdruck Regen Sonnenschein Regendauer Solar Windben Empfang
24.07.2017 00:00 16,3 C 16,0 C 14,9 C 84 % 0 lf 1011,3 hPa 0,0 l/m 0,00 h 0,13 h 5 W/m 9,6 km/h (2 Bft) 95,28 %
24.07.2017 01:00 16,1 C 15,6 C 14,4 C 86 % 0 lf 1010,8 hPa 0,0 l/m 0,00 h 0,03 h 0 W/m 7,1 km/h (2 Bft) 98,79 %
24.07.2017 02:00 15,8 C 15,4 C 14,2 C 87 % 0 lf 1010,1 hPa 0,0 l/m 0,00 h 0,00 h 0 W/m 4,8 km/h (1 Bft) 95,03 %
24.07.2017 03:00 15,6 C 15,3 C 14,0 C 88 % 0 lf 1009,5 hPa 0,0 l/m 0,00 h 0,13 h 0 W/m 3,4 km/h (1 Bft) 95,80 %
24.07.2017 04:00 15,5 C 14,3 C 13,4 C 89 % 9 lf 1009,0 hPa 0,2 l/m 0,00 h 0,97 h 0 W/m 4,5 km/h (1 Bft) 97,64 %
24.07.2017 05:00 15,2 C 13,9 C 13,3 C 91 % 15 lf 1008,7 hPa 0,8 l/m 0,00 h 1,00 h 0 W/m 6,3 km/h (2 Bft) 96,94 %
24.07.2017 06:00 14,8 C 13,9 C 13,2 C 93 % 15 lf 1008,4 hPa 1,2 l/m 0,00 h 1,00 h 10 W/m 4,9 km/h (1 Bft) 95,09 %
24.07.2017 07:00 14,6 C 14,0 C 13,5 C 94 % 15 lf 1008,1 hPa 0,2 l/m 0,00 h 0,47 h 51 W/m 6,8 km/h (2 Bft) 97,58 %
24.07.2017 08:00 14,8 C 14,5 C 14,0 C 96 % 15 lf 1007,9 hPa 0,0 l/m 0,00 h 0,00 h 78 W/m 6,4 km/h (2 Bft) 95,60 %
24.07.2017 09:00 15,1 C 15,5 C 14,6 C 96 % 6 lf 1007,7 hPa 0,0 l/m 0,00 h 0,17 h 129 W/m 6,8 km/h (2 Bft) 97,15 %
24.07.2017 10:00 15,6 C 16,7 C 15,0 C 95 % 0 lf 1007,7 hPa 0,0 l/m 0,00 h 0,07 h 162 W/m 9,5 km/h (2 Bft) 94,98 %
24.07.2017 11:00 17,5 C 23,8 C 19,1 C 89 % 0 lf 1007,6 hPa 0,0 l/m 0,47 h 0,00 h 531 W/m 10,2 km/h (2 Bft) 96,28 %
24.07.2017 12:00 19,5 C 26,0 C 23,5 C 77 % 0 lf 1007,5 hPa 0,0 l/m 0,88 h 0,00 h 579 W/m 12,6 km/h (3 Bft) 95,97 %
24.07.2017 13:00 20,1 C 24,9 C 21,4 C 72 % 0 lf 1007,4 hPa 0,0 l/m 0,40 h 0,00 h 484 W/m 12,8 km/h (3 Bft) 96,66 %
24.07.2017 14:00 19,8 C 21,7 C 21,3 C 72 % 0 lf 1007,7 hPa 0,0 l/m 0,30 h 0,00 h 390 W/m 19,5 km/h (3 Bft) 96,37 %
24.07.2017 15:00 16,8 C 17,3 C 16,3 C 78 % 0 lf 1008,4 hPa 0,0 l/m 0,00 h 0,25 h 191 W/m 17,4 km/h (3 Bft) 97,03 %
24.07.2017 16:00 16,4 C 19,5 C 18,8 C 84 % 0 lf 1008,5 hPa 0,0 l/m 0,00 h 0,00 h 281 W/m 9,6 km/h (2 Bft) 95,05 %
24.07.2017 17:00 18,4 C 21,4 C 20,7 C 79 % 0 lf 1008,3 hPa 0,0 l/m 0,65 h 0,00 h 440 W/m 12,6 km/h (3 Bft) 97,59 %
24.07.2017 18:00 19,3 C 20,7 C 18,9 C 69 % 0 lf 1008,2 hPa 0,0 l/m 1,00 h 0,00 h 420 W/m 16,0 km/h (3 Bft) 95,53 %
24.07.2017 19:00 19,2 C 19,3 C 18,1 C 71 % 0 lf 1008,4 hPa 0,0 l/m 0,45 h 0,00 h 150 W/m 11,6 km/h (2 Bft) 96,87 %
24.07.2017 20:00 17,8 C 16,9 C 15,5 C 79 % 7 lf 1008,8 hPa 0,2 l/m 0,20 h 0,35 h 45 W/m 10,8 km/h (2 Bft) 97,31 %
24.07.2017 21:00 16,0 C 14,6 C 12,9 C 83 % 15 lf 1009,2 hPa 0,0 l/m 0,10 h 0,00 h 9 W/m 2,7 km/h (1 Bft) 95,08 %
24.07.2017 22:00 15,1 C 14,3 C 12,9 C 87 % 3 lf 1009,4 hPa 0,0 l/m 0,00 h 0,00 h 4 W/m 4,7 km/h (1 Bft) 97,57 %
24.07.2017 23:00 15,0 C 14,1 C 13,1 C 91 % 1 lf 1009,6 hPa 0,0 l/m 0,00 h 0,00 h 3 W/m 8,2 km/h (2 Bft) 97,44 %
25.07.2017 00:00 14,7 C 13,9 C 12,8 C 93 % 1 lf 1009,8 hPa 0,0 l/m 0,00 h 0,00 h 1 W/m 7,0 km/h (2 Bft) 93,13 %
25.07.2017 01:00 14,4 C 13,9 C 13,2 C 94 % 2 lf 1009,8 hPa 0,0 l/m 0,00 h 0,20 h 0 W/m 8,8 km/h (2 Bft) 97,79 %
25.07.2017 02:00 14,4 C 13,9 C 13,3 C 95 % 2 lf 1009,8 hPa 0,0 l/m 0,00 h 0,00 h 0 W/m 10,3 km/h (2 Bft) 97,43 %
25.07.2017 03:00 14,4 C 14,2 C 13,2 C 95 % 6 lf 1009,7 hPa 0,2 l/m 0,00 h 0,45 h 0 W/m 11,9 km/h (2 Bft) 95,02 %
25.07.2017 04:00 14,3 C 13,9 C 12,8 C 96 % 15 lf 1009,7 hPa 0,0 l/m 0,00 h 0,47 h 5 W/m 13,9 km/h (3 Bft) 96,42 %
25.07.2017 05:00 14,2 C 13,5 C 12,8 C 96 % 15 lf 1009,6 hPa 0,6 l/m 0,00 h 1,00 h 5 W/m 11,8 km/h (2 Bft) 97,58 %
25.07.2017 06:00 14,2 C 13,9 C 12,9 C 97 % 15 lf 1009,4 hPa 0,8 l/m 0,00 h 0,70 h 12 W/m 10,5 km/h (2 Bft) 94,99 %
25.07.2017 07:00 14,6 C 14,4 C 13,8 C 97 % 15 lf 1009,1 hPa 0,0 l/m 0,00 h 0,00 h 43 W/m 12,8 km/h (3 Bft) 97,48 %
25.07.2017 08:00 15,1 C 15,9 C 14,7 C 98 % 12 lf 1009,1 hPa 0,0 l/m 0,30 h 0,00 h 164 W/m 18,6 km/h (3 Bft) 96,08 %
25.07.2017 09:00 16,0 C 17,9 C 15,7 C 97 % 0 lf 1009,1 hPa 0,0 l/m 0,40 h 0,00 h 255 W/m 22,7 km/h (4 Bft) 96,52 %
25.07.2017 10:00 17,0 C 20,7 C 18,4 C 90 % 0 lf 1009,2 hPa 0,0 l/m 0,57 h 0,00 h 329 W/m 21,9 km/h (4 Bft) 97,10 %
25.07.2017 11:00 18,5 C 22,9 C 21,0 C 82 % 0 lf 1008,9 hPa 0,0 l/m 0,90 h 0,00 h 460 W/m 24,3 km/h (4 Bft) 95,25 %
25.07.2017 12:00 19,0 C 20,6 C 19,4 C 81 % 5 lf 1008,4 hPa 0,0 l/m 0,37 h 0,30 h 318 W/m 21,1 km/h (4 Bft) 96,42 %
25.07.2017 13:00 19,5 C 23,1 C 21,7 C 82 % 1 lf 1008,0 hPa 0,0 l/m 0,97 h 0,03 h 580 W/m 27,2 km/h (4 Bft) 99,01 %
25.07.2017 14:00 19,4 C 20,2 C 19,5 C 76 % 2 lf 1007,8 hPa 0,0 l/m 0,37 h 0,40 h 359 W/m 24,7 km/h (4 Bft) 93,32 %
25.07.2017 15:00 18,8 C 19,4 C 17,4 C 80 % 10 lf 1007,7 hPa 0,2 l/m 0,00 h 0,57 h 196 W/m 19,7 km/h (3 Bft) 97,26 %
25.07.2017 16:00 17,8 C 17,7 C 15,6 C 86 % 15 lf 1007,7 hPa 0,2 l/m 0,00 h 0,80 h 146 W/m 22,7 km/h (4 Bft) 97,77 %
25.07.2017 17:00 17,6 C 17,5 C 16,3 C 88 % 7 lf 1007,4 hPa 0,2 l/m 0,00 h 0,50 h 127 W/m 23,1 km/h (4 Bft) 94,43 %
25.07.2017 18:00 16,7 C 15,6 C 15,0 C 92 % 15 lf 1007,2 hPa 1,8 l/m 0,00 h 1,00 h 49 W/m 24,7 km/h (4 Bft) 96,24 %
25.07.2017 19:00 15,7 C 15,0 C 14,2 C 95 % 15 lf 1007,2 hPa 1,6 l/m 0,00 h 1,00 h 22 W/m 30,8 km/h (5 Bft) 98,08 %
25.07.2017 20:00 15,5 C 15,0 C 14,2 C 97 % 15 lf 1007,4 hPa 1,4 l/m 0,00 h 1,00 h 8 W/m 24,2 km/h (4 Bft) 96,15 %
25.07.2017 21:00 15,5 C 15,0 C 14,1 C 97 % 15 lf 1007,9 hPa 0,2 l/m 0,00 h 0,93 h 5 W/m 18,3 km/h (3 Bft) 95,58 %
25.07.2017 22:00 15,3 C 14,6 C 13,9 C 98 % 15 lf 1008,3 hPa 0,0 l/m 0,00 h 0,23 h 0 W/m 17,3 km/h (3 Bft) 97,01 %
25.07.2017 23:00 15,2 C 14,4 C 13,9 C 98 % 15 lf 1008,3 hPa 0,0 l/m 0,00 h 0,00 h 0 W/m 14,9 km/h (3 Bft) 96,94 %
26.07.2017 00:00 15,2 C 14,4 C 13,9 C 98 % 15 lf 1008,3 hPa 0,0 l/m 0,00 h 0,00 h 0 W/m 15,1 km/h (3 Bft) 96,29 %
26.07.2017 01:00 15,2 C 15,0 C 13,9 C 98 % 12 lf 1008,4 hPa 0,0 l/m 0,00 h 0,00 h 0 W/m 14,8 km/h (3 Bft) 96,07 %
26.07.2017 02:00 15,4 C 15,0 C 14,1 C 98 % 3 lf 1008,5 hPa 0,0 l/m 0,00 h 0,00 h 0 W/m 14,8 km/h (3 Bft) 95,66 %
26.07.2017 03:00 15,7 C 15,5 C 14,4 C 98 % 1 lf 1008,5 hPa 0,0 l/m 0,00 h 0,00 h 0 W/m 13,9 km/h (3 Bft) 98,29 %
26.07.2017 04:00 15,8 C 15,3 C 14,4 C 98 % 11 lf 1008,5 hPa 0,2 l/m 0,00 h 0,27 h 0 W/m 15,6 km/h (3 Bft) 94,57 %
26.07.2017 05:00 15,5 C 14,9 C 14,0 C 98 % 15 lf 1008,6 hPa 0,0 l/m 0,00 h 0,03 h 0 W/m 18,2 km/h (3 Bft) 96,09 %
26.07.2017 06:00 15,2 C 14,6 C 13,8 C 97 % 9 lf 1008,6 hPa 0,0 l/m 0,00 h 0,00 h 14 W/m 15,3 km/h (3 Bft) 97,33 %
26.07.2017 07:00 15,3 C 15,2 C 14,5 C 98 % 0 lf 1008,8 hPa 0,0 l/m 0,00 h 0,00 h 47 W/m 13,2 km/h (3 Bft) 97,22 %
26.07.2017 08:00 15,6 C 16,7 C 15,5 C 97 % 0 lf 1008,9 hPa 0,0 l/m 0,03 h 0,00 h 119 W/m 12,8 km/h (3 Bft) 94,18 %
26.07.2017 09:00 17,0 C 24,3 C 18,7 C 94 % 0 lf 1009,2 hPa 0,0 l/m 0,57 h 0,00 h 380 W/m 14,4 km/h (3 Bft) 97,63 %
26.07.2017 10:00 19,2 C 27,7 C 24,1 C 82 % 0 lf 1009,3 hPa 0,0 l/m 0,70 h 0,00 h 538 W/m 16,0 km/h (3 Bft) 96,37 %
26.07.2017 11:00 20,8 C 28,3 C 24,4 C 76 % 0 lf 1009,2 hPa 0,0 l/m 0,60 h 0,00 h 543 W/m 15,4 km/h (3 Bft) 96,58 %
26.07.2017 12:00 20,5 C 22,3 C 21,3 C 77 % 0 lf 1009,3 hPa 0,0 l/m 0,10 h 0,07 h 245 W/m 14,9 km/h (3 Bft) 95,17 %
26.07.2017 13:00 20,3 C 23,0 C 22,5 C 80 % 0 lf 1009,2 hPa 0,0 l/m 0,37 h 0,00 h 371 W/m 13,8 km/h (3 Bft) 99,08 %
26.07.2017 14:00 22,2 C 28,0 C 27,4 C 74 % 0 lf 1008,9 hPa 0,0 l/m 0,70 h 0,00 h 636 W/m 11,9 km/h (2 Bft) 96,51 %
26.07.2017 15:00 24,0 C 28,6 C 30,3 C 65 % 0 lf 1008,6 hPa 0,0 l/m 0,87 h 0,00 h 708 W/m 17,4 km/h (3 Bft) 94,09 %
26.07.2017 16:00 24,6 C 26,6 C 29,6 C 59 % 0 lf 1008,3 hPa 0,0 l/m 0,87 h 0,00 h 625 W/m 18,9 km/h (3 Bft) 98,51 %
26.07.2017 17:00 24,2 C 24,7 C 23,5 C 59 % 0 lf 1008,1 hPa 0,0 l/m 0,63 h 0,00 h 373 W/m 12,9 km/h (3 Bft) 96,58 %
26.07.2017 18:00 23,3 C 23,9 C 22,6 C 61 % 0 lf 1008,0 hPa 0,0 l/m 0,50 h 0,00 h 229 W/m 11,3 km/h (2 Bft) 94,42 %
26.07.2017 19:00 22,9 C 23,3 C 22,4 C 65 % 0 lf 1007,7 hPa 0,0 l/m 0,47 h 0,00 h 142 W/m 6,4 km/h (2 Bft) 98,50 %
26.07.2017 20:00 22,5 C 22,1 C 21,1 C 67 % 0 lf 1007,1 hPa 0,0 l/m 0,57 h 0,00 h 64 W/m 5,5 km/h (1 Bft) 97,44 %
26.07.2017 21:00 21,7 C 20,8 C 19,6 C 70 % 0 lf 1007,0 hPa 0,0 l/m 0,00 h 0,00 h 8 W/m 8,0 km/h (2 Bft) 94,38 %
26.07.2017 22:00 21,0 C 20,6 C 19,2 C 73 % 0 lf 1007,0 hPa 0,0 l/m 0,00 h 0,07 h 0 W/m 11,1 km/h (2 Bft) 98,29 %
26.07.2017 23:00 20,9 C 20,6 C 19,1 C 74 % 0 lf 1007,1 hPa 0,0 l/m 0,00 h 0,00 h 0 W/m 17,3 km/h (3 Bft) 96,87 %
27.07.2017 00:00 19,7 C 18,6 C 17,5 C 84 % 0 lf 1007,3 hPa 0,0 l/m 0,00 h 0,00 h 0 W/m 14,2 km/h (3 Bft) 95,75 %
27.07.2017 01:00 18,9 C 18,9 C 17,6 C 87 % 0 lf 1006,9 hPa 0,0 l/m 0,00 h 0,00 h 0 W/m 11,8 km/h (2 Bft) 95,53 %
27.07.2017 02:00 18,7 C 17,4 C 16,5 C 90 % 11 lf 1006,9 hPa 0,4 l/m 0,00 h 0,73 h 0 W/m 16,7 km/h (3 Bft) 97,94 %
27.07.2017 03:00 18,0 C 16,7 C 16,1 C 94 % 15 lf 1006,5 hPa 0,2 l/m 0,00 h 0,07 h 0 W/m 11,2 km/h (2 Bft) 96,27 %
27.07.2017 04:00 17,7 C 16,7 C 16,1 C 96 % 15 lf 1006,2 hPa 0,6 l/m 0,00 h 0,77 h 0 W/m 12,3 km/h (3 Bft) 94,74 %
27.07.2017 05:00 17,6 C 16,7 C 16,0 C 97 % 15 lf 1006,0 hPa 0,0 l/m 0,00 h 0,07 h 3 W/m 9,1 km/h (2 Bft) 97,51 %
27.07.2017 06:00 17,6 C 17,0 C 16,2 C 97 % 15 lf 1005,9 hPa 0,0 l/m 0,00 h 0,03 h 14 W/m 9,4 km/h (2 Bft) 96,94 %
27.07.2017 07:00 17,8 C 17,7 C 16,7 C 98 % 15 lf 1006,0 hPa 0,2 l/m 0,00 h 0,00 h 82 W/m 12,8 km/h (3 Bft) 95,38 %
27.07.2017 08:00 17,8 C 18,1 C 16,7 C 97 % 2 lf 1006,6 hPa 0,0 l/m 0,00 h 0,00 h 121 W/m 16,3 km/h (3 Bft) 96,73 %
27.07.2017 09:00 18,0 C 19,0 C 16,9 C 95 % 0 lf 1006,8 hPa 0,0 l/m 0,07 h 0,00 h 157 W/m 16,8 km/h (3 Bft) 95,46 %
27.07.2017 10:00 18,4 C 21,4 C 19,0 C 88 % 0 lf 1007,0 hPa 0,0 l/m 0,70 h 0,00 h 348 W/m 20,5 km/h (4 Bft) 97,08 %
27.07.2017 11:00 20,0 C 24,2 C 23,1 C 80 % 0 lf 1007,1 hPa 0,0 l/m 0,73 h 0,00 h 454 W/m 20,5 km/h (4 Bft) 96,29 %
27.07.2017 12:00 20,3 C 23,3 C 22,9 C 76 % 0 lf 1007,1 hPa 0,0 l/m 0,43 h 0,00 h 425 W/m 18,5 km/h (3 Bft) 95,96 %
27.07.2017 13:00 20,8 C 24,4 C 23,5 C 72 % 0 lf 1007,3 hPa 0,0 l/m 0,77 h 0,00 h 512 W/m 20,8 km/h (4 Bft) 96,73 %
27.07.2017 14:00 21,6 C 24,9 C 24,6 C 67 % 0 lf 1006,9 hPa 0,0 l/m 0,63 h 0,00 h 493 W/m 17,0 km/h (3 Bft) 97,31 %
27.07.2017 15:00 21,1 C 22,5 C 22,4 C 66 % 0 lf 1006,9 hPa 0,0 l/m 0,17 h 0,00 h 286 W/m 17,8 km/h (3 Bft) 94,60 %
27.07.2017 16:00 21,3 C 23,7 C 24,2 C 66 % 0 lf 1006,4 hPa 0,0 l/m 0,70 h 0,00 h 420 W/m 17,1 km/h (3 Bft) 97,43 %
27.07.2017 17:00 21,8 C 23,0 C 22,8 C 65 % 0 lf 1006,2 hPa 0,0 l/m 0,50 h 0,00 h 275 W/m 17,8 km/h (3 Bft) 95,23 %
27.07.2017 18:00 21,8 C 22,9 C 21,9 C 64 % 0 lf 1006,0 hPa 0,0 l/m 0,67 h 0,00 h 277 W/m 16,2 km/h (3 Bft) 97,28 %
27.07.2017 19:00 21,4 C 21,5 C 20,1 C 63 % 0 lf 1005,9 hPa 0,0 l/m 0,77 h 0,00 h 194 W/m 13,8 km/h (3 Bft) 96,44 %
27.07.2017 20:00 20,6 C 19,3 C 17,7 C 67 % 0 lf 1006,1 hPa 0,0 l/m 0,00 h 0,00 h 44 W/m 3,2 km/h (1 Bft) 97,01 %
27.07.2017 21:00 19,3 C 17,4 C 16,1 C 72 % 0 lf 1006,3 hPa 0,0 l/m 0,00 h 0,00 h 9 W/m 0,0 km/h (0 Bft) 96,08 %
27.07.2017 22:00 17,9 C 15,9 C 14,5 C 78 % 0 lf 1006,7 hPa 0,0 l/m 0,00 h 0,00 h 0 W/m 0,0 km/h (0 Bft) 97,44 %
27.07.2017 23:00 16,7 C 15,1 C 14,0 C 81 % 0 lf 1007,0 hPa 0,0 l/m 0,00 h 0,00 h 3 W/m 0,0 km/h (0 Bft) 95,66 %
28.07.2017 00:00 16,1 C 15,6 C 14,7 C 85 % 0 lf 1007,4 hPa 0,0 l/m 0,00 h 0,00 h 0 W/m 6,3 km/h (2 Bft) 97,46 %
28.07.2017 01:00 15,9 C 14,9 C 13,8 C 86 % 0 lf 1007,8 hPa 0,0 l/m 0,00 h 0,00 h 2 W/m 8,6 km/h (2 Bft) 94,95 %
28.07.2017 02:00 15,2 C 14,3 C 13,1 C 85 % 0 lf 1008,0 hPa 0,0 l/m 0,00 h 0,00 h 3 W/m 11,0 km/h (2 Bft) 96,79 %
28.07.2017 03:00 14,4 C 13,9 C 12,5 C 84 % 0 lf 1008,2 hPa 0,0 l/m 0,00 h 0,00 h 3 W/m 12,6 km/h (3 Bft) 96,86 %
28.07.2017 04:00 14,1 C 13,4 C 12,2 C 85 % 0 lf 1008,6 hPa 0,0 l/m 0,00 h 0,00 h 5 W/m 14,6 km/h (3 Bft) 97,29 %
28.07.2017 05:00 13,9 C 13,3 C 12,2 C 87 % 0 lf 1008,9 hPa 0,0 l/m 0,00 h 0,00 h 8 W/m 17,1 km/h (3 Bft) 94,59 %
28.07.2017 06:00 13,8 C 13,5 C 12,3 C 89 % 0 lf 1009,2 hPa 0,0 l/m 0,73 h 0,00 h 44 W/m 16,8 km/h (3 Bft) 97,27 %
28.07.2017 07:00 14,4 C 15,0 C 13,5 C 90 % 0 lf 1009,5 hPa 0,0 l/m 0,83 h 0,00 h 155 W/m 20,1 km/h (4 Bft) 96,82 %
28.07.2017 08:00 15,8 C 18,6 C 14,9 C 86 % 0 lf 1009,9 hPa 0,0 l/m 1,00 h 0,00 h 343 W/m 25,2 km/h (4 Bft) 96,30 %
28.07.2017 09:00 17,7 C 23,0 C 17,7 C 79 % 0 lf 1010,4 hPa 0,0 l/m 0,83 h 0,00 h 444 W/m 28,3 km/h (4 Bft) 95,37 %
28.07.2017 10:00 18,9 C 23,8 C 22,1 C 74 % 0 lf 1010,8 hPa 0,0 l/m 0,73 h 0,00 h 475 W/m 28,3 km/h (4 Bft) 97,01 %
28.07.2017 11:00 19,9 C 24,7 C 22,7 C 69 % 0 lf 1010,9 hPa 0,0 l/m 0,67 h 0,00 h 608 W/m 31,5 km/h (5 Bft) 96,37 %
28.07.2017 12:00 20,4 C 22,7 C 22,3 C 67 % 0 lf 1011,2 hPa 0,0 l/m 0,37 h 0,00 h 453 W/m 31,6 km/h (5 Bft) 97,09 %
28.07.2017 13:00 20,6 C 24,2 C 23,2 C 67 % 0 lf 1011,2 hPa 0,0 l/m 0,67 h 0,00 h 555 W/m 27,1 km/h (4 Bft) 95,09 %
28.07.2017 14:00 22,0 C 25,2 C 25,2 C 63 % 0 lf 1011,4 hPa 0,0 l/m 0,63 h 0,00 h 522 W/m 30,1 km/h (5 Bft) 98,50 %
28.07.2017 15:00 22,4 C 25,1 C 25,5 C 61 % 0 lf 1011,6 hPa 0,0 l/m 0,90 h 0,00 h 500 W/m 29,5 km/h (5 Bft) 95,94 %
28.07.2017 16:00 22,7 C 24,8 C 25,1 C 59 % 0 lf 1011,7 hPa 0,0 l/m 1,00 h 0,00 h 438 W/m 26,8 km/h (4 Bft) 95,73 %
28.07.2017 17:00 22,3 C 22,8 C 22,4 C 59 % 0 lf 1011,7 hPa 0,0 l/m 0,13 h 0,03 h 173 W/m 25,9 km/h (4 Bft) 97,49 %
28.07.2017 18:00 21,4 C 22,2 C 21,3 C 63 % 0 lf 1012,1 hPa 0,0 l/m 0,13 h 0,00 h 160 W/m 18,1 km/h (3 Bft) 94,19 %
28.07.2017 19:00 21,4 C 21,4 C 20,4 C 64 % 0 lf 1012,0 hPa 0,0 l/m 0,10 h 0,00 h 73 W/m 16,2 km/h (3 Bft) 96,87 %
28.07.2017 20:00 20,7 C 20,1 C 18,7 C 66 % 2 lf 1012,3 hPa 0,0 l/m 0,00 h 0,33 h 22 W/m 18,5 km/h (3 Bft) 97,22 %
28.07.2017 21:00 18,9 C 16,4 C 15,1 C 77 % 15 lf 1013,0 hPa 0,2 l/m 0,00 h 0,90 h 7 W/m 10,8 km/h (2 Bft) 95,50 %
28.07.2017 22:00 17,6 C 15,3 C 14,5 C 85 % 15 lf 1013,0 hPa 0,2 l/m 0,00 h 0,93 h 0 W/m 3,0 km/h (1 Bft) 95,17 %
28.07.2017 23:00 16,9 C 15,2 C 14,5 C 89 % 15 lf 1012,8 hPa 0,0 l/m 0,00 h 0,00 h 0 W/m 2,4 km/h (1 Bft) 97,94 %
29.07.2017 00:00 16,4 C 15,6 C 14,4 C 92 % 5 lf 1012,2 hPa 0,0 l/m 0,00 h 0,00 h 0 W/m 5,6 km/h (1 Bft) 95,60 %
29.07.2017 01:00 16,0 C 15,2 C 14,1 C 93 % 0 lf 1011,7 hPa 0,0 l/m 0,00 h 0,00 h 0 W/m 11,1 km/h (2 Bft) 95,01 %
29.07.2017 02:00 15,8 C 15,6 C 13,9 C 93 % 0 lf 1011,0 hPa 0,0 l/m 0,00 h 0,00 h 0 W/m 13,9 km/h (3 Bft) 96,93 %
29.07.2017 03:00 15,8 C 15,8 C 14,2 C 94 % 0 lf 1010,5 hPa 0,0 l/m 0,00 h 0,00 h 0 W/m 12,8 km/h (3 Bft) 96,27 %
29.07.2017 04:00 16,6 C 17,1 C 15,4 C 90 % 0 lf 1010,3 hPa 0,0 l/m 0,00 h 0,00 h 0 W/m 14,0 km/h (3 Bft) 97,02 %
29.07.2017 05:00 17,5 C 17,7 C 16,1 C 85 % 0 lf 1010,2 hPa 0,0 l/m 0,00 h 0,00 h 4 W/m 13,6 km/h (3 Bft) 95,59 %
29.07.2017 06:00 18,0 C 18,1 C 16,6 C 83 % 0 lf 1010,2 hPa 0,0 l/m 0,00 h 0,00 h 22 W/m 13,3 km/h (3 Bft) 97,02 %
29.07.2017 07:00 18,7 C 19,3 C 18,0 C 80 % 0 lf 1010,3 hPa 0,0 l/m 0,30 h 0,00 h 101 W/m 16,8 km/h (3 Bft) 97,16 %
29.07.2017 08:00 19,4 C 20,3 C 18,8 C 77 % 0 lf 1010,7 hPa 0,0 l/m 0,20 h 0,00 h 164 W/m 27,1 km/h (4 Bft) 95,87 %
29.07.2017 09:00 19,9 C 21,4 C 20,3 C 77 % 0 lf 1011,1 hPa 0,0 l/m 0,20 h 0,00 h 231 W/m 26,8 km/h (4 Bft) 96,22 %
29.07.2017 10:00 21,0 C 23,2 C 22,3 C 75 % 0 lf 1011,4 hPa 0,0 l/m 0,40 h 0,00 h 301 W/m 28,2 km/h (4 Bft) 96,16 %
29.07.2017 11:00 21,6 C 23,6 C 23,0 C 75 % 0 lf 1011,6 hPa 0,0 l/m 0,20 h 0,00 h 318 W/m 25,0 km/h (4 Bft) 96,23 %
29.07.2017 12:00 23,1 C 26,8 C 25,8 C 71 % 0 lf 1011,6 hPa 0,0 l/m 0,77 h 0,00 h 507 W/m 23,7 km/h (4 Bft) 96,99 %
29.07.2017 13:00 24,4 C 28,0 C 26,9 C 68 % 0 lf 1011,6 hPa 0,0 l/m 0,57 h 0,00 h 524 W/m 23,9 km/h (4 Bft) 95,51 %
29.07.2017 14:00 25,7 C 30,2 C 30,7 C 65 % 0 lf 1011,2 hPa 0,0 l/m 0,90 h 0,00 h 694 W/m 27,2 km/h (4 Bft) 97,86 %
29.07.2017 15:00 26,0 C 29,0 C 31,9 C 66 % 0 lf 1011,0 hPa 0,0 l/m 0,90 h 0,00 h 716 W/m 26,9 km/h (4 Bft) 96,80 %
29.07.2017 16:00 25,4 C 26,6 C 27,0 C 69 % 0 lf 1010,8 hPa 0,0 l/m 0,23 h 0,00 h 301 W/m 21,3 km/h (4 Bft) 95,02 %
29.07.2017 17:00 25,9 C 26,7 C 25,9 C 68 % 0 lf 1010,4 hPa 0,0 l/m 0,87 h 0,00 h 475 W/m 19,6 km/h (3 Bft) 98,01 %
29.07.2017 18:00 25,7 C 26,0 C 24,1 C 67 % 0 lf 1009,6 hPa 0,0 l/m 0,83 h 0,00 h 334 W/m 15,0 km/h (3 Bft) 95,51 %
29.07.2017 19:00 25,8 C 25,7 C 23,8 C 67 % 0 lf 1008,9 hPa 0,0 l/m 0,47 h 0,00 h 149 W/m 6,7 km/h (2 Bft) 96,21 %
29.07.2017 20:00 25,4 C 24,9 C 22,4 C 69 % 0 lf 1007,9 hPa 0,0 l/m 0,10 h 0,00 h 42 W/m 6,2 km/h (2 Bft) 96,53 %
29.07.2017 21:00 24,9 C 24,6 C 22,7 C 70 % 0 lf 1007,8 hPa 0,0 l/m 0,00 h 0,07 h 8 W/m 12,0 km/h (2 Bft) 96,43 %
29.07.2017 22:00 25,1 C 24,7 C 22,8 C 68 % 0 lf 1007,8 hPa 0,0 l/m 0,00 h 0,00 h 0 W/m 12,8 km/h (3 Bft) 96,30 %
29.07.2017 23:00 24,6 C 24,0 C 22,1 C 70 % 0 lf 1007,5 hPa 0,0 l/m 0,00 h 0,00 h 0 W/m 13,0 km/h (3 Bft) 96,80 %
30.07.2017 00:00 24,1 C 23,6 C 21,4 C 72 % 0 lf 1007,3 hPa 0,0 l/m 0,00 h 0,10 h 0 W/m 13,4 km/h (3 Bft) 96,09 %
30.07.2017 01:00 23,5 C 22,8 C 20,7 C 75 % 0 lf 1007,0 hPa 0,0 l/m 0,00 h 0,00 h 0 W/m 9,2 km/h (2 Bft) 97,22 %
30.07.2017 02:00 22,8 C 22,1 C 20,2 C 78 % 0 lf 1006,5 hPa 0,0 l/m 0,00 h 0,00 h 0 W/m 8,6 km/h (2 Bft) 94,03 %
30.07.2017 03:00 22,0 C 21,0 C 19,3 C 80 % 0 lf 1005,8 hPa 0,0 l/m 0,00 h 0,00 h 0 W/m 6,4 km/h (2 Bft) 98,65 %
30.07.2017 04:00 21,4 C 21,0 C 19,3 C 83 % 0 lf 1005,4 hPa 0,0 l/m 0,00 h 0,00 h 0 W/m 7,7 km/h (2 Bft) 95,77 %
30.07.2017 05:00 21,1 C 20,6 C 18,5 C 84 % 0 lf 1004,7 hPa 0,0 l/m 0,00 h 0,00 h 9 W/m 7,8 km/h (2 Bft) 94,80 %
30.07.2017 06:00 21,1 C 21,2 C 19,5 C 86 % 0 lf 1004,6 hPa 0,0 l/m 0,17 h 0,00 h 26 W/m 14,5 km/h (3 Bft) 97,79 %
30.07.2017 07:00 21,9 C 22,5 C 20,7 C 82 % 0 lf 1004,6 hPa 0,0 l/m 0,90 h 0,00 h 192 W/m 17,6 km/h (3 Bft) 97,72 %
30.07.2017 08:00 22,6 C 23,7 C 21,7 C 76 % 0 lf 1005,2 hPa 0,0 l/m 0,27 h 0,00 h 171 W/m 27,0 km/h (4 Bft) 93,11 %
30.07.2017 09:00 23,4 C 26,8 C 23,5 C 72 % 0 lf 1005,5 hPa 0,0 l/m 0,80 h 0,00 h 368 W/m 28,9 km/h (5 Bft) 98,87 %
30.07.2017 10:00 23,4 C 24,7 C 23,8 C 72 % 0 lf 1005,9 hPa 0,0 l/m 0,33 h 0,00 h 259 W/m 33,0 km/h (5 Bft) 96,31 %
30.07.2017 11:00 24,6 C 27,1 C 26,8 C 69 % 0 lf 1006,0 hPa 0,0 l/m 0,77 h 0,00 h 404 W/m 31,9 km/h (5 Bft) 95,28 %
30.07.2017 12:00 24,1 C 25,9 C 25,3 C 65 % 0 lf 1006,5 hPa 0,0 l/m 0,27 h 0,00 h 413 W/m 35,0 km/h (5 Bft) 97,24 %
30.07.2017 13:00 25,0 C 28,1 C 27,1 C 60 % 0 lf 1006,8 hPa 0,0 l/m 0,90 h 0,00 h 561 W/m 32,0 km/h (5 Bft) 96,94 %
30.07.2017 14:00 25,5 C 28,1 C 28,3 C 58 % 0 lf 1007,1 hPa 0,0 l/m 0,40 h 0,00 h 475 W/m 33,8 km/h (5 Bft) 95,72 %
30.07.2017 15:00 26,8 C 30,5 C 33,7 C 55 % 0 lf 1007,6 hPa 0,0 l/m 0,87 h 0,00 h 748 W/m 35,0 km/h (5 Bft) 96,40 %
30.07.2017 16:00 27,1 C 28,6 C 32,7 C 51 % 0 lf 1007,7 hPa 0,0 l/m 0,80 h 0,00 h 597 W/m 36,1 km/h (5 Bft) 97,55 %
30.07.2017 17:00 26,3 C 27,2 C 26,3 C 58 % 0 lf 1008,4 hPa 0,0 l/m 0,63 h 0,00 h 431 W/m 24,2 km/h (4 Bft) 96,87 %
30.07.2017 18:00 25,2 C 25,7 C 24,1 C 57 % 0 lf 1008,5 hPa 0,0 l/m 0,57 h 0,00 h 282 W/m 22,6 km/h (4 Bft) 93,67 %
30.07.2017 19:00 24,3 C 23,8 C 22,3 C 63 % 0 lf 1008,6 hPa 0,0 l/m 0,50 h 0,00 h 149 W/m 15,7 km/h (3 Bft) 98,29 %
30.07.2017 20:00 22,9 C 22,1 C 20,9 C 69 % 0 lf 1009,2 hPa 0,0 l/m 0,37 h 0,00 h 47 W/m 9,7 km/h (2 Bft) 97,72 %
30.07.2017 21:00 21,7 C 20,2 C 19,2 C 73 % 0 lf 1009,7 hPa 0,0 l/m 0,00 h 0,00 h 8 W/m 5,4 km/h (1 Bft) 93,88 %
30.07.2017 22:00 20,7 C 19,2 C 18,2 C 76 % 0 lf 1010,0 hPa 0,0 l/m 0,00 h 0,03 h 0 W/m 1,8 km/h (1 Bft) 98,49 %
30.07.2017 23:00 20,0 C 18,8 C 17,6 C 80 % 0 lf 1010,4 hPa 0,0 l/m 0,00 h 0,03 h 0 W/m 1,6 km/h (1 Bft) 97,24 %
Min-Datum _ 28.07.17 25.07.17 28.07.17 30.07.17 24.07.17 30.07.17 - - - - 24.07.17 29.07.17
_ Min-Zeit 06:28 05:09 02:56 16:46 00:00 07:02 - - - - 03:44 00:02
Minimum _ 13,7 C 13,3 C 12,2 C 49 % 0 lf 1004,4 hPa - - - - 0,0 km/h (0 Bft) 84,21 %
Max-Datum _ 30.07.17 24.07.17 30.07.17 25.07.17 24.07.17 28.07.17 25.07.17 24.07.17 25.07.17 24.07.17 28.07.17 24.07.17
_ Max-Zeit 16:06 13:36 16:02 08:00 04:46 22:02 18:08 12:35 04:07 13:36 13:46 00:58
Maximum _ 27,4 C 32,8 C 36,7 C 98 % 15 lf 1013,2 hPa 1,8 l/m 0,08 h 0,08 h 1134 W/m 50,2 km/h
W-SW (7 Bft)
100,00 %
Durchschnitt _ 19,3 C 20,1 C 18,9 C 80 % 3 lf 1008,6 hPa #11,8 l/m #45:37 h #18:41 h 246 W/m 15,7 km/h (3 Bft) 96,42 %
© 2017 W. Hausmann